Time;durP1;ratioP1;P1;durP2;ratioP2;P2;SDS_P1;SDS_P2;PMS_P1;PMS_P2;Temp;Humidity;BMP_temperature;BMP_pressure;BME280_temperature;BME280_humidity;BME280_pressure;Samples;Min_cycle;Max_cycle;Signal;HPM_P1;HPM_P2
2022/06/12 00:00:33;;;;;;;;;1.50;0.75;;;;;20.73;51.35;102153.72;5062790;28;45404;-54
2022/06/12 00:03:00;;;;;;;;;3.00;0.50;;;;;20.65;50.89;102158.81;5062904;28;45296;-53
2022/06/12 00:05:30;;;;;;;;;2.00;1.00;;;;;20.60;50.98;102156.50;5061541;28;45489;-51
2022/06/12 00:07:55;;;;;;;;;1.50;0.50;;;;;20.59;51.02;102154.78;5062551;28;46180;-51
2022/06/12 00:10:21;;;;;;;;;5.25;2.50;;;;;20.60;51.03;102161.00;5062093;28;45338;-54
2022/06/12 00:12:47;;;;;;;;;3.25;2.00;;;;;20.58;51.36;102154.91;5062839;28;45488;-54
2022/06/12 00:15:17;;;;;;;;;3.50;0.75;;;;;20.57;50.89;102154.06;5062711;28;45358;-53
2022/06/12 00:17:43;;;;;;;;;4.75;2.25;;;;;20.57;50.74;102156.75;5062234;28;45641;-53
2022/06/12 00:20:12;;;;;;;;;9.25;7.00;;;;;20.54;51.27;102153.47;5064570;28;45370;-52
2022/06/12 00:22:37;;;;;;;;;4.50;2.00;;;;;20.50;50.79;102146.63;5062408;28;45339;-52
2022/06/12 00:25:04;;;;;;;;;1.00;1.00;;;;;20.46;51.10;102156.75;5062284;28;45593;-53
2022/06/12 00:27:29;;;;;;;;;4.75;3.00;;;;;20.45;51.18;102148.81;5062415;28;46233;-51
2022/06/12 00:29:56;;;;;;;;;3.25;1.00;;;;;20.42;51.19;102159.75;5062283;28;45243;-52
2022/06/12 00:32:24;;;;;;;;;5.25;2.00;;;;;20.41;51.13;102152.69;5062597;28;45433;-50
2022/06/12 00:34:53;;;;;;;;;1.00;1.00;;;;;20.40;51.20;102151.84;5062288;28;45416;-51
2022/06/12 00:37:21;;;;;;;;;1.00;0.25;;;;;20.39;51.11;102154.66;5062123;28;45387;-52
2022/06/12 00:39:50;;;;;;;;;1.25;0.75;;;;;20.39;51.06;102160.00;5061864;28;45335;-54
2022/06/12 00:42:21;;;;;;;;;2.25;1.50;;;;;20.37;51.09;102157.41;5062041;28;45333;-54
2022/06/12 00:44:47;;;;;;;;;0.25;0.25;;;;;20.37;51.09;102165.44;5062336;28;45395;-50
2022/06/12 00:47:14;;;;;;;;;1.00;1.00;;;;;20.36;51.02;102164.59;5061689;28;45227;-52
2022/06/12 00:49:50;;;;;;;;;2.75;1.25;;;;;20.36;51.03;102161.06;5061852;28;45338;-53
2022/06/12 00:52:32;;;;;;;;;2.50;1.50;;;;;20.32;51.03;102155.13;5062107;28;45264;-53
2022/06/12 00:55:05;;;;;;;;;5.00;1.00;;;;;20.31;51.21;102156.09;5061800;28;45232;-51
2022/06/12 00:57:32;;;;;;;;;4.50;3.00;;;;;20.30;50.80;102154.38;5061689;28;45355;-53
2022/06/12 01:00:07;;;;;;;;;0.25;0.25;;;;;20.28;51.02;102158.13;5061170;28;45246;-50
2022/06/12 01:02:34;;;;;;;;;3.00;1.75;;;;;20.24;50.79;102152.19;5061838;28;45276;-51
2022/06/12 01:07:50;;;;;;;;;2.25;1.00;;;;;20.15;51.06;102147.56;5061763;28;45391;-51
2022/06/12 01:10:18;;;;;;;;;2.00;1.00;;;;;20.10;50.96;102159.56;5061250;28;45251;-53
2022/06/12 01:12:50;;;;;;;;;4.50;2.50;;;;;20.03;51.11;102157.34;5061799;28;45322;-51
2022/06/12 01:15:19;;;;;;;;;3.00;3.00;;;;;19.96;50.97;102165.97;5061885;28;45196;-53
2022/06/12 01:17:46;;;;;;;;;1.25;1.00;;;;;19.92;50.98;102165.38;5061552;28;45282;-53
2022/06/12 01:20:16;;;;;;;;;2.50;0.75;;;;;19.90;51.59;102169.09;5063034;28;45382;-54
2022/06/12 01:23:03;;;;;;;;;2.50;2.00;;;;;19.87;51.48;102169.34;5061509;28;45189;-53
2022/06/12 01:25:40;;;;;;;;;4.50;2.75;;;;;19.86;51.36;102170.31;5061441;28;45299;-51
2022/06/12 01:28:33;;;;;;;;;2.00;1.00;;;;;19.86;51.24;102163.16;5061308;28;45353;-54
2022/06/12 01:31:14;;;;;;;;;4.50;1.00;;;;;19.86;51.74;102173.84;5059938;28;45488;-52
2022/06/12 01:33:46;;;;;;;;;4.75;1.00;;;;;19.84;51.29;102166.91;5061326;28;45394;-53
2022/06/12 01:36:15;;;;;;;;;2.75;2.00;;;;;19.77;51.22;102167.38;5061551;28;45371;-51
2022/06/12 01:39:16;;;;;;;;;4.00;2.00;;;;;19.73;51.59;102171.22;5061117;28;46251;-53
2022/06/12 01:41:57;;;;;;;;;2.00;1.00;;;;;19.70;51.75;102162.59;5059720;28;45457;-54
2022/06/12 01:44:22;;;;;;;;;2.75;1.00;;;;;19.66;51.72;102169.97;5061323;28;45283;-53
2022/06/12 01:46:52;;;;;;;;;2.75;1.00;;;;;19.65;52.04;102164.75;5061323;28;45252;-52
2022/06/12 01:49:24;;;;;;;;;3.75;2.00;;;;;19.63;52.23;102172.91;5060910;28;46247;-51
2022/06/12 01:51:52;;;;;;;;;2.00;1.00;;;;;19.60;52.63;102170.47;5059869;28;45405;-53
2022/06/12 01:54:54;;;;;;;;;1.25;1.00;;;;;19.51;52.48;102177.31;5061395;28;45288;-52
2022/06/12 01:57:24;;;;;;;;;1.50;0.50;;;;;19.46;52.45;102178.63;5060964;28;45367;-52
2022/06/12 02:00:02;;;;;;;;;1.00;1.00;;;;;19.36;53.05;102183.78;5060924;28;45451;-50
2022/06/12 02:02:38;;;;;;;;;4.50;2.00;;;;;19.33;52.92;102183.16;5060981;28;45628;-52
2022/06/12 02:05:25;;;;;;;;;2.25;1.00;;;;;19.32;52.96;102176.09;5061010;28;45366;-54
2022/06/12 02:08:00;;;;;;;;;1.25;1.00;;;;;19.29;52.99;102179.00;5061119;28;45256;-53
2022/06/12 02:10:35;;;;;;;;;2.00;1.00;;;;;19.28;53.32;102177.31;5064426;28;46231;-51
2022/06/12 02:13:12;;;;;;;;;1.00;1.00;;;;;19.29;52.80;102177.19;5067480;28;45345;-48
2022/06/12 02:15:43;;;;;;;;;3.00;1.75;;;;;19.28;53.36;102183.50;5067880;28;45346;-52
2022/06/12 02:18:22;;;;;;;;;2.00;1.00;;;;;19.28;52.89;102188.00;5067642;28;45319;-51
2022/06/12 02:20:54;;;;;;;;;1.00;1.00;;;;;19.25;53.17;102192.56;5069333;28;45344;-54
2022/06/12 02:23:31;;;;;;;;;3.25;1.75;;;;;19.22;52.99;102186.63;5067435;28;45299;-50
2022/06/12 02:25:58;;;;;;;;;2.50;1.50;;;;;19.19;53.41;102186.81;5067113;28;45317;-51
2022/06/12 02:28:44;;;;;;;;;1.00;1.00;;;;;19.13;53.08;102177.44;5067706;28;45204;-54
2022/06/12 02:31:16;;;;;;;;;2.25;1.00;;;;;19.16;53.26;102189.72;5067202;28;45228;-48
2022/06/12 02:33:46;;;;;;;;;1.25;1.25;;;;;19.15;53.32;102182.69;5067355;28;45297;-52
2022/06/12 02:36:19;;;;;;;;;3.75;2.00;;;;;19.15;52.96;102190.69;5067084;28;45301;-51
2022/06/12 02:38:57;;;;;;;;;2.75;1.50;;;;;19.15;52.73;102191.53;5067506;28;45208;-52
2022/06/12 02:41:34;;;;;;;;;3.00;2.00;;;;;19.13;52.86;102185.47;5066699;28;45174;-54
2022/06/12 02:44:09;;;;;;;;;4.00;1.00;;;;;19.12;53.04;102185.59;5067000;28;45453;-52
2022/06/12 02:46:52;;;;;;;;;3.00;1.75;;;;;19.10;53.29;102179.47;5067361;28;45464;-53
2022/06/12 02:49:18;;;;;;;;;1.50;1.00;;;;;19.04;53.19;102178.13;5067050;28;45508;-52
2022/06/12 02:51:56;;;;;;;;;2.25;2.00;;;;;19.03;53.25;102184.41;5065840;28;45383;-52
2022/06/12 02:54:32;;;;;;;;;4.00;2.00;;;;;19.05;52.78;102184.31;5067225;28;45390;-52
2022/06/12 02:57:00;;;;;;;;;3.00;1.25;;;;;19.03;53.33;102175.53;5066914;28;45350;-54
2022/06/12 02:59:41;;;;;;;;;3.75;1.00;;;;;19.02;53.34;102184.50;5067318;28;45259;-51
2022/06/12 03:02:34;;;;;;;;;2.00;1.50;;;;;19.00;53.02;102179.28;5066411;28;45387;-49
2022/06/12 03:05:22;;;;;;;;;0.25;0.25;;;;;19.01;53.02;102183.66;5066934;28;45371;-51
2022/06/12 03:07:55;;;;;;;;;4.50;1.50;;;;;18.99;53.11;102182.06;5067291;28;45290;-50
2022/06/12 03:10:25;;;;;;;;;1.75;1.75;;;;;18.98;53.09;102181.22;5066490;28;45510;-49
2022/06/12 03:12:51;;;;;;;;;2.50;2.50;;;;;18.92;53.61;102177.16;5066657;28;45188;-51
2022/06/12 03:15:28;;;;;;;;;1.75;1.00;;;;;18.87;53.61;102181.13;5066948;28;45355;-52
2022/06/12 03:17:54;;;;;;;;;4.75;1.25;;;;;18.83;53.77;102179.66;5066951;28;45409;-51
2022/06/12 03:20:23;;;;;;;;;2.00;1.00;;;;;18.82;53.36;102175.28;5068092;28;45405;-52
2022/06/12 03:23:05;;;;;;;;;5.75;2.75;;;;;18.82;53.87;102176.13;5062603;28;45516;-52
2022/06/12 03:25:57;;;;;;;;;3.00;1.00;;;;;18.83;53.48;102179.66;5062944;28;45333;-50
2022/06/12 03:28:44;;;;;;;;;3.25;2.75;;;;;18.84;53.98;102186.69;5062168;28;45439;-51
2022/06/12 03:31:18;;;;;;;;;3.00;2.00;;;;;18.83;53.78;102185.84;5063470;28;45335;-52
2022/06/12 03:34:02;;;;;;;;;3.75;3.00;;;;;18.83;53.95;102187.66;5063052;28;46079;-52
2022/06/12 03:37:06;;;;;;;;;4.25;2.00;;;;;18.77;53.63;102175.59;5050142;28;45251;-50
2022/06/12 03:39:37;;;;;;;;;2.25;2.00;;;;;18.73;53.94;102175.94;5063036;28;45306;-52
2022/06/12 03:42:30;;;;;;;;;5.50;2.00;;;;;18.65;53.71;102176.44;5063139;28;45334;-53
2022/06/12 03:45:02;;;;;;;;;5.75;2.25;;;;;18.63;54.02;102181.00;5059759;28;45370;-54
2022/06/12 03:47:29;;;;;;;;;2.50;0.25;;;;;18.66;53.89;102183.53;5063052;28;45345;-54
2022/06/12 03:50:13;;;;;;;;;4.50;2.00;;;;;18.65;53.92;102174.66;5062815;28;45343;-53
2022/06/12 03:53:19;;;;;;;;;1.00;1.00;;;;;18.62;54.10;102177.50;5063030;28;45488;-50
2022/06/12 03:58:59;;;;;;;;;2.00;2.00;;;;;18.57;53.91;102176.97;5062765;28;45224;-52
2022/06/12 04:01:26;;;;;;;;;2.25;2.00;;;;;18.59;54.10;102176.88;5063041;28;45291;-54
2022/06/12 04:03:54;;;;;;;;;3.50;2.00;;;;;18.55;54.26;102172.69;5062802;28;45261;-53
2022/06/12 04:06:25;;;;;;;;;2.50;2.00;;;;;18.56;54.33;102169.91;5062637;28;45362;-51
2022/06/12 04:08:57;;;;;;;;;3.75;2.00;;;;;18.54;54.50;102169.16;5062603;28;45374;-52
2022/06/12 04:11:25;;;;;;;;;5.25;2.50;;;;;18.53;54.20;102164.78;5062373;28;45204;-52
2022/06/12 04:13:52;;;;;;;;;2.00;1.00;;;;;18.52;54.28;102165.75;5062861;28;45449;-49
2022/06/12 04:16:32;;;;;;;;;3.00;3.00;;;;;18.50;54.48;102166.84;5062564;28;45349;-50
2022/06/12 04:19:01;;;;;;;;;3.50;2.25;;;;;18.49;54.39;102167.81;5062643;28;45489;-51
2022/06/12 04:21:38;;;;;;;;;3.25;2.00;;;;;18.47;54.71;102164.38;5063461;28;45350;-52
2022/06/12 04:24:08;;;;;;;;;4.50;3.00;;;;;18.46;54.81;102168.84;5062687;28;45295;-50
2022/06/12 04:26:43;;;;;;;;;4.50;2.00;;;;;18.49;54.77;102175.81;5061993;28;45340;-51
2022/06/12 04:29:12;;;;;;;;;3.75;1.75;;;;;18.49;54.86;102174.00;5062192;28;45288;-51
2022/06/12 04:31:43;;;;;;;;;2.00;1.75;;;;;18.49;54.77;102175.81;5062843;28;45236;-53
2022/06/12 04:34:17;;;;;;;;;6.75;1.75;;;;;18.47;54.56;102178.56;5061026;28;45336;-51
2022/06/12 04:36:45;;;;;;;;;5.00;2.75;;;;;18.48;55.06;102184.75;5062366;28;46190;-48
2022/06/12 04:39:16;;;;;;;;;2.00;2.00;;;;;18.52;54.74;102181.78;5061992;28;45283;-48
2022/06/12 04:41:43;;;;;;;;;2.50;2.00;;;;;18.56;54.94;102177.91;5062059;28;45237;-47
2022/06/12 04:44:10;;;;;;;;;6.00;3.00;;;;;18.58;54.76;102181.34;5062290;28;45410;-48
2022/06/12 04:46:38;;;;;;;;;1.75;1.25;;;;;18.63;54.96;102184.53;5061981;28;45395;-50
2022/06/12 04:49:05;;;;;;;;;2.50;1.00;;;;;18.69;54.83;102181.47;5061992;28;45181;-48
2022/06/12 04:51:30;;;;;;;;;4.50;2.75;;;;;18.75;54.79;102179.34;5062154;28;45255;-49
2022/06/12 04:53:57;;;;;;;;;3.25;3.00;;;;;18.78;54.65;102179.97;5062093;28;45234;-49
2022/06/12 04:56:28;;;;;;;;;5.00;2.75;;;;;18.80;54.73;102175.38;5061700;28;45272;-50
2022/06/12 04:58:54;;;;;;;;;4.00;1.75;;;;;18.81;55.18;102176.25;5061776;28;45303;-48
2022/06/12 05:01:21;;;;;;;;;5.75;2.25;;;;;18.79;55.10;102181.66;5061969;28;45296;-50
2022/06/12 05:03:46;;;;;;;;;4.00;3.00;;;;;18.78;55.42;102179.13;5060797;28;45478;-48
2022/06/12 05:06:16;;;;;;;;;3.75;2.00;;;;;18.78;54.86;102171.09;5062022;28;45437;-51
2022/06/12 05:08:43;;;;;;;;;5.25;3.00;;;;;18.73;55.42;102167.94;5061680;28;45322;-51
2022/06/12 05:11:09;;;;;;;;;5.00;2.00;;;;;18.66;55.34;102170.16;5061570;28;45480;-47
2022/06/12 05:13:35;;;;;;;;;2.50;2.50;;;;;18.59;55.02;102163.53;5061670;28;45234;-50
2022/06/12 05:16:00;;;;;;;;;5.50;2.75;;;;;18.56;55.06;102166.38;5060388;28;45377;-51
2022/06/12 05:18:26;;;;;;;;;2.00;2.00;;;;;18.54;54.80;102166.50;5061619;28;45234;-50
2022/06/12 05:20:52;;;;;;;;;4.00;2.00;;;;;18.55;54.96;102162.00;5062909;28;45219;-53
2022/06/12 05:23:20;;;;;;;;;5.25;2.50;;;;;18.56;55.31;102163.72;5061599;28;45336;-51
2022/06/12 05:25:45;;;;;;;;;1.00;1.00;;;;;18.61;55.37;102158.91;5061158;28;46108;-50
2022/06/12 05:28:13;;;;;;;;;4.00;2.75;;;;;18.68;55.56;102166.41;5061418;28;45322;-51
2022/06/12 05:30:39;;;;;;;;;5.75;3.00;;;;;18.75;55.51;102169.50;5061554;28;45238;-52
2022/06/12 05:33:05;;;;;;;;;1.00;1.00;;;;;18.82;55.59;102168.13;5061557;28;45418;-50
2022/06/12 05:35:32;;;;;;;;;2.00;2.00;;;;;18.91;55.71;102166.59;5061377;28;45370;-50
2022/06/12 05:38:00;;;;;;;;;4.00;2.00;;;;;19.00;55.44;102170.44;5061298;28;45285;-51
2022/06/12 05:40:29;;;;;;;;;1.00;1.00;;;;;19.06;55.07;102164.66;5061025;28;45327;-50
2022/06/12 05:42:55;;;;;;;;;3.75;1.00;;;;;19.07;55.63;102169.88;5061598;28;45234;-52
2022/06/12 05:45:23;;;;;;;;;2.25;2.25;;;;;19.13;55.40;102172.09;5060649;28;45205;-52
2022/06/12 05:47:59;;;;;;;;;2.50;2.25;;;;;19.17;55.90;102160.22;5061638;28;45597;-51
2022/06/12 05:50:29;;;;;;;;;3.75;1.50;;;;;19.23;55.54;102156.25;5060949;28;45298;-49
2022/06/12 05:52:56;;;;;;;;;4.75;3.00;;;;;19.28;55.72;102169.28;5061231;28;45630;-49
2022/06/12 05:55:22;;;;;;;;;2.00;1.25;;;;;19.31;55.69;102175.25;5060601;28;45329;-52
2022/06/12 05:57:48;;;;;;;;;1.00;1.00;;;;;19.34;55.94;102179.50;5061231;28;45173;-53
2022/06/12 06:00:22;;;;;;;;;3.50;2.00;;;;;19.40;55.57;102182.59;5061113;28;45153;-54
2022/06/12 06:02:47;;;;;;;;;3.75;3.00;;;;;19.42;55.82;102179.78;5061035;28;45483;-52
2022/06/12 06:05:13;;;;;;;;;5.50;2.00;;;;;19.42;55.77;102177.13;5060836;28;45215;-49
2022/06/12 06:07:39;;;;;;;;;4.00;2.25;;;;;19.42;55.27;102179.78;5061197;28;46024;-50
2022/06/12 06:10:07;;;;;;;;;3.75;2.00;;;;;19.43;55.50;102186.84;5060576;28;45257;-53
2022/06/12 06:12:33;;;;;;;;;2.50;2.00;;;;;19.46;55.66;102181.28;5061249;28;45346;-54
2022/06/12 06:14:58;;;;;;;;;4.00;0.75;;;;;19.48;55.49;102182.88;5060694;28;45974;-49
2022/06/12 06:17:24;;;;;;;;;2.00;1.75;;;;;19.58;55.21;102183.06;5060935;28;45189;-51
2022/06/12 06:19:49;;;;;;;;;3.25;1.00;;;;;19.66;54.93;102185.16;5062181;28;45496;-52
2022/06/12 06:22:18;;;;;;;;;3.00;3.00;;;;;19.75;55.31;102187.19;5061144;28;45459;-53
2022/06/12 06:24:44;;;;;;;;;4.00;2.75;;;;;19.82;54.81;102187.56;5060256;28;46240;-50
2022/06/12 06:27:10;;;;;;;;;4.00;2.75;;;;;19.87;54.78;102188.91;5060507;28;45370;-53
2022/06/12 06:29:36;;;;;;;;;6.00;2.50;;;;;19.93;54.87;102190.28;5060583;28;45252;-53
2022/06/12 06:32:03;;;;;;;;;4.50;2.00;;;;;19.93;54.81;102190.28;5060775;28;45607;-52
2022/06/12 06:34:29;;;;;;;;;6.25;2.25;;;;;19.97;54.34;102200.63;5060528;28;47472;-52
2022/06/12 06:36:54;;;;;;;;;1.50;0.75;;;;;20.05;54.41;102197.38;5060615;28;45244;-52
2022/06/12 06:39:20;;;;;;;;;3.75;1.00;;;;;20.08;54.17;102200.66;5060365;28;45208;-52
2022/06/12 06:41:45;;;;;;;;;5.00;3.00;;;;;20.16;54.51;102209.94;5060582;28;45542;-55
2022/06/12 06:46:54;;;;;;;;;2.25;1.75;;;;;20.13;54.14;102196.78;5060849;28;45296;-53
2022/06/12 06:49:21;;;;;;;;;1.50;0.50;;;;;20.06;54.27;102201.75;5060575;28;45480;-52
2022/06/12 06:51:47;;;;;;;;;2.00;1.00;;;;;20.01;54.18;102198.56;5060651;28;45232;-50
2022/06/12 06:54:12;;;;;;;;;6.00;2.25;;;;;20.04;53.57;102198.34;5059900;28;46100;-49
2022/06/12 06:56:38;;;;;;;;;2.75;2.00;;;;;20.12;53.83;102200.44;5061318;28;45227;-54
2022/06/12 06:59:03;;;;;;;;;1.25;1.00;;;;;20.18;53.98;102199.97;5062874;28;45238;-51
2022/06/12 07:01:29;;;;;;;;;1.25;1.25;;;;;20.24;53.90;102202.19;5064241;28;45284;-52
2022/06/12 07:03:54;;;;;;;;;2.00;0.50;;;;;20.28;53.83;102200.94;5063413;28;46139;-47
2022/06/12 07:06:21;;;;;;;;;3.00;2.00;;;;;20.30;53.25;102205.25;5063815;28;45329;-54
2022/06/12 07:08:48;;;;;;;;;3.25;2.00;;;;;20.29;53.54;102198.16;5063649;28;45256;-50
2022/06/12 07:11:13;;;;;;;;;3.00;1.50;;;;;20.27;54.00;102201.94;5063257;28;45308;-52
2022/06/12 07:13:39;;;;;;;;;2.25;2.00;;;;;20.32;54.03;102205.97;5063606;28;45471;-52
2022/06/12 07:16:05;;;;;;;;;3.50;2.75;;;;;20.38;54.15;102203.75;5063723;28;45313;-50
2022/06/12 07:18:30;;;;;;;;;5.00;2.00;;;;;20.42;54.60;102213.28;5063781;28;45211;-48
2022/06/12 07:21:00;;;;;;;;;1.75;1.75;;;;;20.47;54.50;102203.97;5065237;28;45377;-46
2022/06/12 07:23:27;;;;;;;;;4.00;2.00;;;;;20.52;54.16;102207.09;5050075;28;46348;-51
2022/06/12 07:25:56;;;;;;;;;4.00;1.00;;;;;20.56;54.34;102199.72;5063077;28;45449;-50
2022/06/12 07:28:23;;;;;;;;;2.50;2.00;;;;;20.58;54.28;102200.44;5063673;28;45244;-51
2022/06/12 07:30:50;;;;;;;;;1.25;1.25;;;;;20.59;54.08;102207.50;5063368;28;45307;-49
2022/06/12 07:33:16;;;;;;;;;4.00;2.00;;;;;20.62;53.82;102199.25;5063152;28;46125;-49
2022/06/12 07:35:43;;;;;;;;;2.00;1.50;;;;;20.69;53.70;102203.09;5063130;28;45330;-52
2022/06/12 07:38:10;;;;;;;;;3.00;1.00;;;;;20.71;53.81;102206.53;5063482;28;45318;-49
2022/06/12 07:40:41;;;;;;;;;6.00;2.00;;;;;20.74;53.39;102206.28;5062878;28;45216;-49
2022/06/12 07:43:08;;;;;;;;;3.00;2.00;;;;;20.78;53.62;102205.09;5061746;28;46700;-54
2022/06/12 07:45:34;;;;;;;;;6.00;1.50;;;;;20.80;53.23;102210.31;5062961;28;45555;-49
2022/06/12 07:48:00;;;;;;;;;1.25;1.25;;;;;20.80;53.21;102205.81;5063295;28;45347;-50
2022/06/12 07:50:25;;;;;;;;;4.25;1.50;;;;;20.80;53.09;102207.63;5062893;28;45231;-52
2022/06/12 07:52:51;;;;;;;;;3.50;3.00;;;;;20.84;53.09;102209.94;5063211;28;45791;-50
2022/06/12 07:55:18;;;;;;;;;1.00;1.00;;;;;20.86;53.20;102208.00;5062677;28;45402;-52
2022/06/12 07:57:44;;;;;;;;;3.75;1.00;;;;;20.89;52.92;102213.09;5063192;28;45416;-50
2022/06/12 08:00:13;;;;;;;;;5.50;0.50;;;;;20.88;52.69;102207.88;5063000;28;45349;-53
2022/06/12 08:02:40;;;;;;;;;4.50;3.00;;;;;20.89;52.44;102206.91;5062710;28;45366;-55
2022/06/12 08:05:06;;;;;;;;;4.25;0.75;;;;;20.92;52.23;102204.81;5062646;28;45379;-53
2022/06/12 08:07:31;;;;;;;;;3.75;2.25;;;;;20.95;52.36;102203.75;5062725;28;45287;-53
2022/06/12 08:09:57;;;;;;;;;4.25;2.00;;;;;20.96;52.59;102205.44;5062376;28;45378;-53
2022/06/12 08:12:22;;;;;;;;;4.50;1.00;;;;;21.01;53.00;102203.22;5062682;28;45328;-50
2022/06/12 08:14:48;;;;;;;;;2.00;2.00;;;;;21.03;53.16;102209.34;5062585;28;45246;-49
2022/06/12 08:17:13;;;;;;;;;1.00;0.50;;;;;21.07;53.12;102209.94;5063041;28;45284;-53
2022/06/12 08:22:23;;;;;;;;;1.00;1.00;;;;;21.14;53.06;102203.94;5062465;28;45327;-51
2022/06/12 08:24:48;;;;;;;;;1.25;1.25;;;;;21.21;52.69;102201.63;5062288;28;45227;-51
2022/06/12 08:27:14;;;;;;;;;5.25;3.25;;;;;21.29;52.68;102191.19;5062607;28;45489;-49
2022/06/12 08:29:40;;;;;;;;;1.00;0.50;;;;;21.33;52.32;102195.31;5062479;28;45346;-51
2022/06/12 08:32:12;;;;;;;;;2.75;0.50;;;;;21.39;52.41;102193.94;5062351;28;46119;-50
2022/06/12 08:34:46;;;;;;;;;2.00;1.50;;;;;21.40;52.18;102199.19;5060863;28;45538;-52
2022/06/12 08:37:17;;;;;;;;;1.00;0.50;;;;;21.40;51.92;102193.81;5062458;28;45564;-54
2022/06/12 08:39:42;;;;;;;;;1.00;1.00;;;;;21.40;51.51;102195.66;5062113;28;45264;-54
2022/06/12 08:42:18;;;;;;;;;2.50;2.50;;;;;21.43;51.56;102187.38;5062087;28;46218;-51
2022/06/12 08:44:48;;;;;;;;;1.00;1.00;;;;;21.45;51.23;102188.94;5060943;28;45358;-53
2022/06/12 08:47:24;;;;;;;;;1.75;1.25;;;;;21.54;51.15;102181.09;5062176;28;45454;-53
2022/06/12 08:50:12;;;;;;;;;3.00;1.50;;;;;21.59;50.91;102179.75;5061899;28;45342;-53
2022/06/12 08:52:55;;;;;;;;;4.25;4.25;;;;;21.61;50.89;102169.75;5061875;28;46010;-53
2022/06/12 08:55:29;;;;;;;;;2.25;0.75;;;;;21.58;50.83;102179.91;5061653;28;45270;-50
2022/06/12 08:58:18;;;;;;;;;4.25;1.50;;;;;21.61;50.58;102174.25;5062359;28;45277;-49
2022/06/12 09:00:44;;;;;;;;;2.50;1.25;;;;;21.63;50.65;102170.47;5062032;28;45314;-51
2022/06/12 09:03:20;;;;;;;;;2.00;0.75;;;;;21.69;50.58;102166.44;5061594;28;46616;-52
2022/06/12 09:06:22;;;;;;;;;1.75;1.25;;;;;21.72;50.47;102168.84;5061971;28;45310;-49
2022/06/12 09:09:16;;;;;;;;;3.00;1.50;;;;;21.75;50.43;102168.59;5061639;28;45568;-49
2022/06/12 09:11:45;;;;;;;;;1.00;0.50;;;;;21.79;50.18;102161.97;5058805;28;45272;-50
2022/06/12 09:14:53;;;;;;;;;1.75;1.25;;;;;21.80;50.53;102169.03;5061569;28;45405;-52
2022/06/12 09:17:24;;;;;;;;;1.25;0.75;;;;;21.81;49.93;102164.56;5061894;28;45278;-52
2022/06/12 09:20:28;;;;;;;;;1.50;0.75;;;;;21.84;50.20;102159.78;5063230;28;45426;-53
2022/06/12 09:23:07;;;;;;;;;2.50;0.50;;;;;21.91;49.96;102158.28;5039431;28;45432;-54
2022/06/12 09:25:59;;;;;;;;;1.25;0.75;;;;;21.96;50.05;102158.75;5058918;28;45466;-51
2022/06/12 09:28:38;;;;;;;;;2.00;2.00;;;;;22.01;50.07;102158.34;5057239;28;45437;-52
2022/06/12 09:31:12;;;;;;;;;1.75;1.25;;;;;22.05;49.81;102159.78;5061301;28;45232;-53
2022/06/12 09:33:58;;;;;;;;;4.75;2.75;;;;;22.14;49.65;102158.19;5061646;28;45261;-52
2022/06/12 09:36:35;;;;;;;;;1.75;0.75;;;;;22.21;50.01;102154.00;5053927;28;46062;-52
2022/06/12 09:39:09;;;;;;;;;1.00;1.00;;;;;22.24;50.17;102149.19;5061261;28;45270;-52
2022/06/12 09:41:59;;;;;;;;;4.25;1.25;;;;;22.29;50.12;102148.81;5061440;28;45273;-51
2022/06/12 09:44:42;;;;;;;;;0.50;0.50;;;;;22.33;50.17;102160.97;5061421;28;46685;-52
2022/06/12 09:47:16;;;;;;;;;5.00;2.75;;;;;22.40;49.89;102156.78;5061071;28;45388;-53
2022/06/12 09:50:21;;;;;;;;;0.75;0.50;;;;;22.44;50.14;102160.91;5061249;28;46512;-53
2022/06/12 09:52:48;;;;;;;;;1.00;1.00;;;;;22.53;50.25;102161.94;5061249;28;45401;-54
2022/06/12 09:55:19;;;;;;;;;3.25;1.00;;;;;22.61;50.01;102161.28;5060716;28;45243;-52
2022/06/12 09:58:06;;;;;;;;;3.00;1.75;;;;;22.76;49.80;102158.09;5061110;28;46123;-52
2022/06/12 10:00:36;;;;;;;;;4.00;1.00;;;;;22.92;49.76;102168.34;5060879;28;45482;-54
2022/06/12 10:03:23;;;;;;;;;13.75;11.25;;;;;22.97;49.96;102173.31;5060997;28;45300;-52
2022/06/12 10:06:24;;;;;;;;;0.00;0.00;;;;;22.94;49.39;102169.06;5061114;28;45351;-53
2022/06/12 10:08:53;;;;;;;;;3.00;2.00;;;;;22.97;49.31;102171.47;5056916;28;45410;-50
2022/06/12 10:11:29;;;;;;;;;6.50;4.00;;;;;22.99;49.64;102156.06;5060397;28;45308;-50
2022/06/12 10:14:04;;;;;;;;;1.75;1.00;;;;;23.08;49.55;102163.31;5061006;28;45366;-53
2022/06/12 10:16:37;;;;;;;;;2.00;2.00;;;;;23.11;49.39;102165.72;5061003;28;45273;-51
2022/06/12 10:19:06;;;;;;;;;2.50;2.00;;;;;23.17;49.36;102158.94;5060589;28;45267;-54
2022/06/12 10:21:36;;;;;;;;;2.00;2.00;;;;;23.24;49.49;102154.72;5062129;28;45369;-53
2022/06/12 10:24:03;;;;;;;;;1.50;0.50;;;;;23.23;49.10;102149.47;5060509;28;45194;-53
2022/06/12 10:26:31;;;;;;;;;4.00;0.75;;;;;23.31;49.44;102161.22;5060725;28;45173;-52
2022/06/12 10:29:11;;;;;;;;;2.00;1.25;;;;;23.38;49.24;102151.63;5060517;28;46155;-51
2022/06/12 10:31:48;;;;;;;;;1.00;1.00;;;;;23.40;49.21;102155.00;5062991;28;45371;-54
2022/06/12 10:34:19;;;;;;;;;2.50;2.00;;;;;23.49;49.06;102147.09;5064241;28;45273;-51
2022/06/12 10:36:45;;;;;;;;;4.50;3.00;;;;;23.54;48.68;102145.69;5064539;28;45193;-50
2022/06/12 10:39:13;;;;;;;;;2.00;2.00;;;;;23.53;49.15;102132.34;5063499;28;45418;-51
2022/06/12 10:41:48;;;;;;;;;2.00;2.00;;;;;23.51;49.24;102126.28;5064252;28;45236;-51
2022/06/12 10:44:28;;;;;;;;;3.00;2.25;;;;;23.59;49.19;102121.88;5064108;28;45229;-53
2022/06/12 10:46:53;;;;;;;;;5.50;3.75;;;;;23.70;49.26;102123.63;5064123;28;45264;-53
2022/06/12 10:49:23;;;;;;;;;10.25;7.25;;;;;23.78;48.76;102122.88;5063873;28;45356;-50
2022/06/12 10:51:49;;;;;;;;;10.25;7.50;;;;;23.82;49.43;102114.38;5064113;28;45307;-52
2022/06/12 10:54:19;;;;;;;;;2.00;2.00;;;;;23.85;49.35;102114.09;5063978;28;45374;-54
2022/06/12 10:57:21;;;;;;;;;6.00;4.00;;;;;23.86;48.94;102114.97;5063787;28;45569;-50
2022/06/12 10:59:57;;;;;;;;;2.25;2.00;;;;;23.88;49.32;102118.34;5063713;28;46351;-53
2022/06/12 11:02:59;;;;;;;;;5.25;2.50;;;;;23.93;48.89;102116.91;5062137;28;45359;-50
2022/06/12 11:05:50;;;;;;;;;2.75;2.25;;;;;23.97;48.84;102113.94;5063900;28;45497;-53
2022/06/12 11:08:43;;;;;;;;;2.50;2.50;;;;;23.97;48.96;102108.56;5062315;28;45272;-49
2022/06/12 11:11:19;;;;;;;;;5.75;3.25;;;;;24.00;48.59;102106.41;5063244;28;45407;-53
2022/06/12 11:13:48;;;;;;;;;5.75;2.00;;;;;24.07;48.83;102102.16;5063727;28;45310;-52
2022/06/12 11:16:42;;;;;;;;;3.00;3.00;;;;;24.15;48.78;102102.25;5063683;28;45396;-49
2022/06/12 11:19:32;;;;;;;;;2.00;2.00;;;;;24.23;48.06;102097.00;5061027;28;45603;-53
2022/06/12 11:22:16;;;;;;;;;7.75;7.25;;;;;24.23;48.14;102091.63;5051289;28;46103;-51
2022/06/12 11:24:50;;;;;;;;;5.75;2.75;;;;;24.24;48.54;102082.53;5063110;28;45310;-50
2022/06/12 11:28:00;;;;;;;;;19.50;16.50;;;;;24.32;47.67;102079.13;5063359;28;45240;-53
2022/06/12 11:30:46;;;;;;;;;2.25;2.25;;;;;24.37;48.09;102086.78;5063213;28;45574;-51
2022/06/12 11:33:30;;;;;;;;;3.50;3.00;;;;;24.42;47.32;102079.13;5063079;28;45402;-52
2022/06/12 11:36:06;;;;;;;;;4.50;3.00;;;;;24.46;47.44;102069.72;5063222;28;45326;-51
2022/06/12 11:39:03;;;;;;;;;3.50;2.00;;;;;24.54;47.09;102074.38;5063288;28;45379;-52
2022/06/12 11:41:52;;;;;;;;;3.75;2.00;;;;;24.57;47.11;102071.38;5063119;28;45240;-52
2022/06/12 11:44:32;;;;;;;;;4.00;3.00;;;;;24.57;47.37;102069.53;5062636;28;45330;-53
2022/06/12 11:47:32;;;;;;;;;2.75;2.00;;;;;24.59;47.13;102061.31;5063087;28;45321;-53
2022/06/12 11:50:31;;;;;;;;;6.00;4.00;;;;;24.67;46.89;102062.25;5063091;28;45294;-49
2022/06/12 11:53:14;;;;;;;;;2.00;1.50;;;;;24.71;47.06;102052.84;5063375;28;45438;-49
2022/06/12 11:55:54;;;;;;;;;2.00;2.00;;;;;24.73;46.64;102052.72;5062564;28;45338;-49
2022/06/12 11:58:40;;;;;;;;;2.00;1.00;;;;;24.77;46.65;102054.09;5062930;28;45352;-49
2022/06/12 12:01:26;;;;;;;;;2.25;2.00;;;;;24.79;45.76;102054.78;5063226;28;45409;-50
2022/06/12 12:04:17;;;;;;;;;5.25;3.00;;;;;24.74;45.95;102054.41;5062827;28;45304;-54